createdAt,value
2023-05-11T00:04:03.218Z,9.87
2023-05-11T00:08:06.666Z,10.90
2023-05-11T00:12:11.509Z,10.73
2023-05-11T00:16:15.018Z,10.10
2023-05-11T00:20:19.020Z,11.10
2023-05-11T00:24:22.977Z,11.40
2023-05-11T00:28:27.546Z,11.17
2023-05-11T00:32:31.021Z,11.33
2023-05-11T00:36:34.335Z,11.27
2023-05-11T00:40:37.676Z,11.10
2023-05-11T00:44:42.292Z,10.60
2023-05-11T00:48:45.635Z,11.20
2023-05-11T00:52:49.235Z,10.07
2023-05-11T00:56:53.495Z,8.40
2023-05-11T01:00:58.125Z,10.60
2023-05-11T01:05:01.953Z,9.63
2023-05-11T01:09:09.714Z,8.20
2023-05-11T01:13:24.438Z,8.93
2023-05-11T01:17:37.900Z,8.10
2023-05-11T01:21:41.967Z,7.63
2023-05-11T01:26:05.540Z,7.17
2023-05-11T01:30:35.957Z,7.87
2023-05-11T01:34:42.225Z,8.77
2023-05-11T01:38:48.778Z,7.53
2023-05-11T01:42:56.492Z,7.90
2023-05-11T01:47:02.270Z,7.33
2023-05-11T01:51:07.124Z,8.63
2023-05-11T01:55:11.668Z,7.80
2023-05-11T01:59:17.675Z,8.20
2023-05-11T02:03:23.338Z,7.47
2023-05-11T02:07:30.440Z,8.00
2023-05-11T02:11:35.386Z,7.03
2023-05-11T02:15:42.598Z,8.10
2023-05-11T02:19:48.774Z,8.43
2023-05-11T02:23:53.984Z,6.70
2023-05-11T02:27:57.205Z,8.27
2023-05-11T02:32:07.589Z,6.37
2023-05-11T02:36:18.575Z,7.13
2023-05-11T02:40:29.598Z,8.10
2023-05-11T02:44:35.596Z,6.27
2023-05-11T02:48:42.959Z,7.17
2023-05-11T02:52:50.155Z,6.47
2023-05-11T02:56:53.659Z,6.77
2023-05-11T03:00:57.508Z,6.10
2023-05-11T03:05:00.698Z,6.17
2023-05-11T03:09:07.262Z,7.23
2023-05-11T03:13:12.621Z,6.90
2023-05-11T03:17:18.076Z,7.23
2023-05-11T03:21:21.898Z,6.23
2023-05-11T03:25:29.066Z,6.80
2023-05-11T03:29:34.620Z,7.00
2023-05-11T03:33:37.789Z,6.03
2023-05-11T03:37:41.940Z,5.90
2023-05-11T03:41:50.973Z,5.83
2023-05-11T03:45:57.518Z,6.30
2023-05-11T03:50:02.116Z,6.07
2023-05-11T03:54:06.905Z,5.60
2023-05-11T03:58:11.904Z,5.60
2023-05-11T04:02:15.230Z,6.47
2023-05-11T04:06:19.633Z,5.93
2023-05-11T04:10:23.614Z,5.90
2023-05-11T04:14:28.264Z,6.43
2023-05-11T04:18:31.730Z,5.73
2023-05-11T04:22:35.213Z,6.40
2023-05-11T04:26:38.430Z,5.10
2023-05-11T04:30:42.898Z,5.10
2023-05-11T04:34:46.173Z,5.03
2023-05-11T04:38:49.331Z,5.33
2023-05-11T04:42:54.008Z,4.60
2023-05-11T04:46:59.518Z,5.30
2023-05-11T04:51:06.002Z,5.63
2023-05-11T04:55:09.841Z,5.47
2023-05-11T04:59:12.968Z,4.70
2023-05-11T05:03:17.775Z,4.40
2023-05-11T05:07:20.967Z,4.43
2023-05-11T05:11:24.866Z,4.90
2023-05-11T05:15:29.251Z,4.67
2023-05-11T05:19:34.061Z,5.20
2023-05-11T05:23:37.471Z,4.80
2023-05-11T05:27:40.612Z,5.17
2023-05-11T05:31:43.727Z,7.00
2023-05-11T05:35:48.322Z,6.20
2023-05-11T05:39:51.475Z,4.83
2023-05-11T05:43:54.620Z,5.00
2023-05-11T05:48:00.441Z,5.93
2023-05-11T05:52:05.222Z,4.70
2023-05-11T05:56:08.769Z,4.97
2023-05-11T06:00:13.528Z,4.57
2023-05-11T06:04:17.069Z,4.57
2023-05-11T06:08:21.868Z,4.97
2023-05-11T06:12:25.384Z,4.30
2023-05-11T06:16:28.871Z,4.57
2023-05-11T06:20:33.333Z,4.37
2023-05-11T06:24:37.904Z,3.97
2023-05-11T06:28:43.986Z,4.87
2023-05-11T06:32:47.353Z,4.33
2023-05-11T06:36:50.880Z,4.80
2023-05-11T06:40:56.506Z,3.90
2023-05-11T06:44:59.686Z,4.93
2023-05-11T06:49:03.095Z,4.13
2023-05-11T06:53:06.248Z,4.07
2023-05-11T06:57:12.621Z,3.87
2023-05-11T07:01:17.566Z,4.23
2023-05-11T07:05:30.919Z,4.97
2023-05-11T07:10:29.522Z,4.93
2023-05-11T07:14:34.084Z,4.30
2023-05-11T07:18:38.489Z,5.07
2023-05-11T07:22:41.704Z,4.80
2023-05-11T07:26:45.017Z,5.40
2023-05-11T07:30:50.216Z,4.53
2023-05-11T07:34:53.370Z,5.27
2023-05-11T07:38:57.913Z,5.50
2023-05-11T07:43:01.197Z,5.63
2023-05-11T07:47:05.827Z,4.70
2023-05-11T07:51:09.424Z,4.77
2023-05-11T07:55:12.625Z,5.17
2023-05-11T07:59:16.938Z,4.60
2023-05-11T08:03:21.675Z,4.73
2023-05-11T08:07:25.084Z,4.50
2023-05-11T08:11:28.505Z,4.53
2023-05-11T08:15:32.198Z,4.87
2023-05-11T08:19:36.774Z,6.03
2023-05-11T08:23:39.856Z,5.70
2023-05-11T08:27:43.144Z,5.87
2023-05-11T08:31:46.361Z,7.07
2023-05-11T08:35:51.115Z,6.00
2023-05-11T08:39:54.239Z,6.70
2023-05-11T08:44:00.950Z,6.40
2023-05-11T08:48:05.283Z,6.33
2023-05-11T08:52:10.791Z,6.63
2023-05-11T08:56:16.519Z,6.27
2023-05-11T09:00:21.243Z,6.67
2023-05-11T09:04:27.231Z,7.27
2023-05-11T09:08:35.084Z,7.10
2023-05-11T09:12:38.417Z,7.07
2023-05-11T09:16:41.605Z,6.87
2023-05-11T09:20:45.419Z,6.57
2023-05-11T09:24:49.944Z,6.60
2023-05-11T09:29:03.368Z,7.20
2023-05-11T09:33:07.380Z,8.13
2023-05-11T09:37:18.239Z,7.77
2023-05-11T09:41:25.186Z,8.57
2023-05-11T09:45:42.025Z,7.47
2023-05-11T09:49:46.780Z,7.33
2023-05-11T09:53:49.905Z,8.13
2023-05-11T09:57:57.651Z,8.03
2023-05-11T10:02:17.826Z,8.00
2023-05-11T10:06:21.258Z,7.13
2023-05-11T10:10:25.380Z,9.07
2023-05-11T10:14:31.276Z,8.43
2023-05-11T10:18:35.030Z,9.60
2023-05-11T10:22:38.462Z,8.13
2023-05-11T10:26:42.634Z,8.43
2023-05-11T10:30:56.041Z,8.20
2023-05-11T10:35:00.499Z,9.87
2023-05-11T10:39:03.897Z,10.30
2023-05-11T10:43:52.482Z,9.33
2023-05-11T10:48:25.113Z,9.97
2023-05-11T10:53:00.395Z,9.77
2023-05-11T10:57:16.727Z,10.90
2023-05-11T11:01:38.277Z,10.83
2023-05-11T11:05:44.041Z,10.10
2023-05-11T11:09:54.535Z,10.70
2023-05-11T11:14:02.805Z,11.23
2023-05-11T11:18:22.741Z,10.60
2023-05-11T11:22:48.030Z,12.17
2023-05-11T11:26:52.002Z,11.60
2023-05-11T11:31:28.096Z,10.90
2023-05-11T11:35:47.350Z,12.03
2023-05-11T11:40:09.413Z,12.00
2023-05-11T11:44:23.884Z,11.23
2023-05-11T11:48:35.489Z,11.00
2023-05-11T11:52:41.309Z,11.90
2023-05-11T11:56:46.919Z,11.13
2023-05-11T12:00:50.188Z,12.60
2023-05-11T12:04:58.829Z,10.73
2023-05-11T12:09:01.996Z,11.07
2023-05-11T12:13:07.576Z,12.87
2023-05-11T12:17:16.000Z,13.07
2023-05-11T12:21:22.660Z,12.17
2023-05-11T12:25:26.087Z,11.70
2023-05-11T12:29:31.237Z,10.83
2023-05-11T12:33:34.392Z,11.30
2023-05-11T12:37:38.138Z,12.37
2023-05-11T12:41:45.016Z,11.33
2023-05-11T12:45:50.496Z,12.13
2023-05-11T12:49:53.980Z,10.30
2023-05-11T12:53:57.152Z,11.80
2023-05-11T12:58:10.110Z,10.70
2023-05-11T13:02:18.125Z,11.90
2023-05-11T13:06:21.858Z,11.43
2023-05-11T13:10:26.849Z,13.00
2023-05-11T13:14:32.646Z,11.90
2023-05-11T13:18:37.321Z,12.17
2023-05-11T13:22:40.770Z,10.70
2023-05-11T13:26:43.854Z,10.87
2023-05-11T13:30:48.814Z,11.17
2023-05-11T13:34:53.403Z,10.37
2023-05-11T13:38:57.625Z,11.40
2023-05-11T13:43:01.294Z,10.80
2023-05-11T13:47:04.674Z,11.97
2023-05-11T13:51:09.854Z,11.27
2023-05-11T13:55:13.107Z,11.33
2023-05-11T13:59:16.471Z,11.87
2023-05-11T14:03:20.606Z,10.93
2023-05-11T14:07:35.596Z,10.97
2023-05-11T14:11:47.255Z,10.53
2023-05-11T14:15:50.714Z,11.17
2023-05-11T14:19:53.788Z,9.20
2023-05-11T14:24:10.824Z,8.50
2023-05-11T14:28:15.689Z,9.73
2023-05-11T14:32:19.482Z,10.83
2023-05-11T14:36:23.285Z,10.27
2023-05-11T14:40:27.761Z,10.20
2023-05-11T14:44:31.848Z,10.43
2023-05-11T14:48:35.042Z,9.93
2023-05-11T14:52:38.278Z,9.80
2023-05-11T14:56:42.752Z,11.00
2023-05-11T15:00:45.956Z,9.97
2023-05-11T15:04:49.086Z,9.70
2023-05-11T15:08:52.648Z,10.60
2023-05-11T15:12:57.213Z,11.17
2023-05-11T15:17:01.738Z,9.57
2023-05-11T15:21:06.015Z,9.93
2023-05-11T15:25:10.255Z,10.67
2023-05-11T15:29:16.663Z,9.80
2023-05-11T15:33:19.990Z,9.83
2023-05-11T15:37:23.940Z,10.90
2023-05-11T15:41:27.323Z,10.90
2023-05-11T15:45:33.323Z,9.37
2023-05-11T15:49:36.681Z,9.00
2023-05-11T15:53:40.250Z,8.57
2023-05-11T15:57:43.603Z,8.73
2023-05-11T16:01:50.158Z,9.50
2023-05-11T16:05:53.989Z,8.83
2023-05-11T16:09:57.214Z,9.90
2023-05-11T16:14:00.461Z,9.77
2023-05-11T16:18:05.658Z,9.70
2023-05-11T16:22:08.942Z,9.50
2023-05-11T16:26:12.379Z,9.63
2023-05-11T16:30:24.363Z,10.70
2023-05-11T16:34:30.223Z,10.00
2023-05-11T16:38:33.599Z,11.50
2023-05-11T16:42:36.921Z,10.23
2023-05-11T16:46:40.347Z,10.07
2023-05-11T16:50:45.495Z,10.60
2023-05-11T16:54:49.297Z,10.77
2023-05-11T16:58:53.872Z,13.27
2023-05-11T17:02:57.649Z,11.73
2023-05-11T17:07:03.237Z,11.30
2023-05-11T17:11:07.186Z,10.70
2023-05-11T17:15:11.554Z,11.40
2023-05-11T17:19:15.548Z,12.10
2023-05-11T17:23:20.699Z,13.70
2023-05-11T17:27:27.892Z,14.17
2023-05-11T17:31:32.066Z,11.90
2023-05-11T17:35:36.088Z,14.27
2023-05-11T17:39:42.482Z,13.53
2023-05-11T17:43:48.256Z,12.17
2023-05-11T17:47:54.259Z,14.13
2023-05-11T17:51:58.286Z,12.63
2023-05-11T17:56:03.975Z,14.50
2023-05-11T18:00:12.662Z,13.27
2023-05-11T18:04:16.617Z,13.53
2023-05-11T18:08:20.747Z,11.83
2023-05-11T18:12:26.067Z,11.90
2023-05-11T18:16:32.480Z,13.37
2023-05-11T18:20:39.371Z,11.60
2023-05-11T18:24:45.163Z,12.00
2023-05-11T18:28:59.587Z,11.70
2023-05-11T18:33:06.346Z,11.80
2023-05-11T18:37:11.817Z,11.23
2023-05-11T18:41:21.557Z,11.10
2023-05-11T18:45:30.026Z,11.37
2023-05-11T18:49:35.168Z,12.10
2023-05-11T18:53:39.382Z,11.73
2023-05-11T18:57:43.317Z,10.93
2023-05-11T19:01:50.258Z,11.10
2023-05-11T19:05:57.384Z,10.57
2023-05-11T19:10:03.115Z,10.50
2023-05-11T19:14:11.458Z,21.10
2023-05-11T19:18:21.282Z,12.60
2023-05-11T19:22:27.730Z,13.10
2023-05-11T19:26:32.456Z,11.77
2023-05-11T19:30:38.774Z,22.37
2023-05-11T19:34:44.190Z,19.00
2023-05-11T19:39:03.107Z,14.13
2023-05-11T19:43:12.455Z,13.87
2023-05-11T19:47:16.933Z,11.40
2023-05-11T19:51:22.709Z,11.20
2023-05-11T19:55:26.913Z,10.60
2023-05-11T19:59:33.596Z,11.73
2023-05-11T20:03:37.782Z,11.17
2023-05-11T20:07:43.747Z,10.50
2023-05-11T20:11:47.536Z,9.70
2023-05-11T20:15:51.528Z,10.90
2023-05-11T20:19:55.450Z,10.13
2023-05-11T20:24:00.741Z,10.47
2023-05-11T20:28:05.757Z,9.60
2023-05-11T20:32:09.981Z,10.20
2023-05-11T20:36:14.976Z,10.73
2023-05-11T20:40:20.696Z,9.90
2023-05-11T20:44:24.713Z,9.13
2023-05-11T20:48:39.059Z,11.13
2023-05-11T20:52:44.175Z,9.50
2023-05-11T20:56:48.891Z,9.60
2023-05-11T21:00:52.188Z,9.50
2023-05-11T21:05:01.879Z,9.80
2023-05-11T21:09:05.186Z,9.90
2023-05-11T21:13:09.815Z,10.73
2023-05-11T21:17:12.907Z,8.83
2023-05-11T21:21:16.078Z,9.17
2023-05-11T21:25:19.358Z,9.00
2023-05-11T21:29:24.213Z,8.83
2023-05-11T21:33:27.391Z,7.60
2023-05-11T21:37:33.613Z,6.50
2023-05-11T21:41:36.759Z,7.47
2023-05-11T21:45:41.775Z,8.23
2023-05-11T21:49:44.971Z,6.13
2023-05-11T21:53:49.329Z,5.70
2023-05-11T21:57:52.788Z,5.67
2023-05-11T22:01:57.977Z,4.50
2023-05-11T22:06:01.432Z,4.50
2023-05-11T22:10:04.918Z,4.67
2023-05-11T22:14:08.220Z,4.90
2023-05-11T22:18:12.936Z,3.97
2023-05-11T22:22:16.164Z,3.53
2023-05-11T22:26:19.371Z,4.47
2023-05-11T22:30:22.960Z,4.23
2023-05-11T22:34:27.590Z,4.20
2023-05-11T22:38:32.720Z,4.20
2023-05-11T22:42:35.991Z,3.13
2023-05-11T22:46:39.253Z,4.20
2023-05-11T22:50:46.697Z,3.53
2023-05-11T22:54:54.617Z,3.40
2023-05-11T22:58:59.923Z,3.00
2023-05-11T23:03:03.610Z,3.50
2023-05-11T23:07:12.181Z,2.70
2023-05-11T23:11:15.307Z,2.50
2023-05-11T23:15:18.904Z,2.20
2023-05-11T23:19:22.166Z,2.27
2023-05-11T23:23:27.145Z,2.00
2023-05-11T23:27:30.431Z,2.10
2023-05-11T23:31:34.275Z,2.20
2023-05-11T23:35:38.149Z,2.20
2023-05-11T23:39:42.615Z,2.20
2023-05-11T23:43:45.881Z,2.37
2023-05-11T23:47:49.331Z,2.20
2023-05-11T23:51:52.780Z,2.13
2023-05-11T23:55:57.359Z,1.53
